createdAt,value
2019-05-07T00:00:53.072Z,5.90
2019-05-07T00:03:22.021Z,5.90
2019-05-07T00:05:53.724Z,5.90
2019-05-07T00:08:19.432Z,5.80
2019-05-07T00:10:47.090Z,5.80
2019-05-07T00:13:14.805Z,5.70
2019-05-07T00:15:42.456Z,5.70
2019-05-07T00:18:12.466Z,5.60
2019-05-07T00:20:39.586Z,5.60
2019-05-07T00:23:07.246Z,5.60
2019-05-07T00:25:34.939Z,5.50
2019-05-07T00:28:02.920Z,5.40
2019-05-07T00:30:32.975Z,5.30
2019-05-07T00:33:02.586Z,5.30
2019-05-07T00:35:33.821Z,5.20
2019-05-07T00:38:05.391Z,5.10
2019-05-07T00:40:55.409Z,5.10
2019-05-07T00:43:25.808Z,5.00
2019-05-07T00:46:03.261Z,5.00
2019-05-07T00:48:32.830Z,4.90
2019-05-07T00:51:18.865Z,4.90
2019-05-07T00:53:46.504Z,4.80
2019-05-07T00:56:14.270Z,4.70
2019-05-07T00:58:42.819Z,4.70
2019-05-07T01:01:12.993Z,4.60
2019-05-07T01:03:42.305Z,4.60
2019-05-07T01:06:09.833Z,4.50
2019-05-07T01:08:37.468Z,4.50
2019-05-07T01:11:05.129Z,4.50
2019-05-07T01:13:32.806Z,4.40
2019-05-07T01:16:02.443Z,4.40
2019-05-07T01:18:32.274Z,4.30
2019-05-07T01:20:59.395Z,4.30
2019-05-07T01:23:27.085Z,4.20
2019-05-07T01:25:54.719Z,4.20
2019-05-07T01:28:22.554Z,4.10
2019-05-07T01:30:52.589Z,4.10
2019-05-07T01:33:33.183Z,4.00
2019-05-07T01:36:08.706Z,4.00
2019-05-07T01:38:36.390Z,4.00
2019-05-07T01:41:04.038Z,3.90
2019-05-07T01:43:32.199Z,3.90
2019-05-07T01:45:59.945Z,3.90
2019-05-07T01:48:27.629Z,3.80
2019-05-07T01:50:55.233Z,3.80
2019-05-07T01:53:22.974Z,3.80
2019-05-07T01:55:52.380Z,3.70
2019-05-07T01:58:22.002Z,3.70
2019-05-07T02:00:49.620Z,3.60
2019-05-07T02:03:26.546Z,3.60
2019-05-07T02:06:02.171Z,3.50
2019-05-07T02:08:55.484Z,3.50
2019-05-07T02:11:28.572Z,3.50
2019-05-07T02:13:56.423Z,3.40
2019-05-07T02:16:24.038Z,3.40
2019-05-07T02:18:52.804Z,3.30
2019-05-07T02:21:22.059Z,3.30
2019-05-07T02:23:52.150Z,3.30
2019-05-07T02:26:19.335Z,3.20
2019-05-07T02:28:46.958Z,3.20
2019-05-07T02:31:15.238Z,3.20
2019-05-07T02:33:43.699Z,3.20
2019-05-07T02:36:14.223Z,3.10
2019-05-07T02:38:52.813Z,3.10
2019-05-07T02:41:23.351Z,3.10
2019-05-07T02:43:53.691Z,3.00
2019-05-07T02:46:46.079Z,3.00
2019-05-07T02:49:36.248Z,3.00
2019-05-07T02:52:13.497Z,2.90
2019-05-07T02:55:03.958Z,2.90
2019-05-07T02:57:33.631Z,2.90
2019-05-07T03:00:04.033Z,2.80
2019-05-07T03:02:32.996Z,2.80
2019-05-07T03:04:58.884Z,2.80
2019-05-07T03:07:26.593Z,2.70
2019-05-07T03:09:54.285Z,2.70
2019-05-07T03:12:23.785Z,2.70
2019-05-07T03:14:53.608Z,2.70
2019-05-07T03:17:24.266Z,2.70
2019-05-07T03:19:53.450Z,2.70
2019-05-07T03:22:23.181Z,2.60
2019-05-07T03:24:58.613Z,2.60
2019-05-07T03:27:26.245Z,2.60
2019-05-07T03:30:16.631Z,2.50
2019-05-07T03:32:56.250Z,2.50
2019-05-07T03:35:37.315Z,2.50
2019-05-07T03:38:03.447Z,2.40
2019-05-07T03:40:32.954Z,2.40
2019-05-07T03:43:02.918Z,2.30
2019-05-07T03:45:49.833Z,2.20
2019-05-07T03:48:19.264Z,2.20
2019-05-07T03:50:46.909Z,2.20
2019-05-07T03:53:14.619Z,2.10
2019-05-07T03:55:44.783Z,2.10
2019-05-07T03:58:14.579Z,2.10
2019-05-07T04:00:44.200Z,2.10
2019-05-07T04:03:13.912Z,2.10
2019-05-07T04:05:43.057Z,2.10
2019-05-07T04:08:12.839Z,2.10
2019-05-07T04:10:39.301Z,2.10
2019-05-07T04:13:06.939Z,2.10
2019-05-07T04:15:34.594Z,2.10
2019-05-07T04:18:03.612Z,2.10
2019-05-07T04:20:33.418Z,2.20
2019-05-07T04:23:04.006Z,2.20
2019-05-07T04:25:48.867Z,2.20
2019-05-07T04:28:38.859Z,2.20
2019-05-07T04:31:06.521Z,2.20
2019-05-07T04:33:37.566Z,2.30
2019-05-07T04:36:22.966Z,2.30
2019-05-07T04:38:53.248Z,2.30
2019-05-07T04:41:23.335Z,2.30
2019-05-07T04:43:50.225Z,2.40
2019-05-07T04:46:17.912Z,2.50
2019-05-07T04:48:45.555Z,2.60
2019-05-07T04:51:15.548Z,2.70
2019-05-07T04:53:43.241Z,2.70
2019-05-07T04:56:13.837Z,2.80
2019-05-07T04:58:43.069Z,2.90
2019-05-07T05:01:13.857Z,2.90
2019-05-07T05:03:43.686Z,3.00
2019-05-07T05:06:13.367Z,3.20
2019-05-07T05:08:40.189Z,3.30
2019-05-07T05:11:07.845Z,3.40
2019-05-07T05:13:35.520Z,3.50
2019-05-07T05:16:22.930Z,3.70
2019-05-07T05:18:51.736Z,4.00
2019-05-07T05:21:43.807Z,4.40
2019-05-07T05:24:15.167Z,4.90
2019-05-07T05:26:42.844Z,5.40
2019-05-07T05:29:12.142Z,5.80
2019-05-07T05:31:42.122Z,6.30
2019-05-07T05:34:09.874Z,6.80
2019-05-07T05:36:37.551Z,7.30
2019-05-07T05:39:07.084Z,7.80
2019-05-07T05:41:37.908Z,8.30
2019-05-07T05:44:11.901Z,8.80
2019-05-07T05:46:39.745Z,9.20
2019-05-07T05:49:07.392Z,9.70
2019-05-07T05:51:54.530Z,10.00
2019-05-07T05:54:42.582Z,10.30
2019-05-07T05:57:39.236Z,10.60
2019-05-07T06:00:25.197Z,9.90
2019-05-07T06:03:11.924Z,11.10
2019-05-07T06:06:02.149Z,11.20
2019-05-07T06:08:43.449Z,11.50
2019-05-07T06:11:33.348Z,11.80
2019-05-07T06:14:05.895Z,12.00
2019-05-07T06:16:37.441Z,12.10
2019-05-07T06:19:19.170Z,12.30
2019-05-07T06:22:04.842Z,12.50
2019-05-07T06:24:42.654Z,12.70
2019-05-07T06:27:12.264Z,12.80
2019-05-07T06:29:42.469Z,13.00
2019-05-07T06:32:12.131Z,13.10
2019-05-07T06:34:42.480Z,13.30
2019-05-07T06:37:09.307Z,13.60
2019-05-07T06:39:44.231Z,13.80
2019-05-07T06:42:30.143Z,14.00
2019-05-07T06:45:12.238Z,14.20
2019-05-07T06:47:39.428Z,14.30
2019-05-07T06:50:07.212Z,14.20
2019-05-07T06:52:34.855Z,14.30
2019-05-07T06:55:03.333Z,14.20
2019-05-07T06:57:33.035Z,14.20
2019-05-07T07:00:04.669Z,14.10
2019-05-07T07:02:47.337Z,13.80
2019-05-07T07:05:33.562Z,13.80
2019-05-07T07:08:06.031Z,13.90
2019-05-07T07:10:52.232Z,13.90
2019-05-07T07:13:22.809Z,13.80
2019-05-07T07:15:52.176Z,14.10
2019-05-07T07:18:19.938Z,14.40
2019-05-07T07:20:48.712Z,14.70
2019-05-07T07:23:16.450Z,14.70
2019-05-07T07:25:44.078Z,14.10
2019-05-07T07:28:12.320Z,13.80
2019-05-07T07:31:15.101Z,14.00
2019-05-07T07:33:43.694Z,14.30
2019-05-07T07:36:12.008Z,14.60
2019-05-07T07:38:41.946Z,15.20
2019-05-07T07:41:34.818Z,15.80
2019-05-07T07:44:02.707Z,16.00
2019-05-07T07:46:32.837Z,14.90
2019-05-07T07:49:07.833Z,15.50
2019-05-07T07:51:38.885Z,15.50
2019-05-07T07:53:58.763Z,15.40
2019-05-07T07:56:52.394Z,15.40
2019-05-07T07:59:32.845Z,15.30
2019-05-07T08:02:20.121Z,15.20
2019-05-07T08:04:47.805Z,15.30
2019-05-07T08:07:15.431Z,15.20
2019-05-07T08:09:43.144Z,15.40
2019-05-07T08:12:12.725Z,15.80
2019-05-07T08:14:42.530Z,16.10
2019-05-07T08:17:09.727Z,15.90
2019-05-07T08:19:37.518Z,15.50
2019-05-07T08:22:05.155Z,15.10
2019-05-07T08:24:32.798Z,14.60
2019-05-07T08:27:02.322Z,14.40
2019-05-07T08:29:32.284Z,14.20
2019-05-07T08:32:12.855Z,14.50
2019-05-07T08:34:45.810Z,14.80
2019-05-07T08:37:13.455Z,15.00
2019-05-07T08:39:42.932Z,15.40
2019-05-07T08:42:12.273Z,15.40
2019-05-07T08:44:46.599Z,15.20
2019-05-07T08:47:31.942Z,15.40
2019-05-07T08:49:59.534Z,15.60
2019-05-07T08:52:27.202Z,15.60
2019-05-07T08:54:54.867Z,15.50
2019-05-07T08:57:22.936Z,15.30
2019-05-07T08:59:58.478Z,15.30
2019-05-07T09:02:22.230Z,15.10
2019-05-07T09:04:49.628Z,15.00
2019-05-07T09:07:17.243Z,14.90
2019-05-07T09:09:44.891Z,15.20
2019-05-07T09:12:12.626Z,15.70
2019-05-07T09:14:42.346Z,16.10
2019-05-07T09:17:09.796Z,16.50
2019-05-07T09:19:48.318Z,16.90
2019-05-07T09:22:07.079Z,16.90
2019-05-07T09:24:34.731Z,16.60
2019-05-07T09:27:22.285Z,16.30
2019-05-07T09:30:12.789Z,15.90
2019-05-07T09:32:47.542Z,15.90
2019-05-07T09:35:21.679Z,15.90
2019-05-07T09:37:49.404Z,15.70
2019-05-07T09:40:17.155Z,15.50
2019-05-07T09:42:44.888Z,15.20
2019-05-07T09:45:13.363Z,14.90
2019-05-07T09:47:41.788Z,14.90
2019-05-07T09:50:11.676Z,15.40
2019-05-07T09:52:39.115Z,15.70
2019-05-07T09:55:14.889Z,16.10
2019-05-07T09:57:36.454Z,16.40
2019-05-07T10:00:04.615Z,16.70
2019-05-07T10:02:32.293Z,16.80
2019-05-07T10:05:02.035Z,16.90
2019-05-07T10:07:29.621Z,17.00
2019-05-07T10:09:57.246Z,17.20
2019-05-07T10:12:47.559Z,17.20
2019-05-07T10:15:15.526Z,17.10
2019-05-07T10:18:12.991Z,17.00
2019-05-07T10:20:42.118Z,17.20
2019-05-07T10:23:19.048Z,17.60
2019-05-07T10:25:52.689Z,17.90
2019-05-07T10:28:22.738Z,18.00
2019-05-07T10:30:52.121Z,18.30
2019-05-07T10:33:20.038Z,18.30
2019-05-07T10:35:47.655Z,18.40
2019-05-07T10:38:15.959Z,18.30
2019-05-07T10:40:43.601Z,18.10
2019-05-07T10:43:11.381Z,18.10
2019-05-07T10:45:57.049Z,17.90
2019-05-07T10:48:56.350Z,17.60
2019-05-07T10:51:24.644Z,17.30
2019-05-07T10:53:52.420Z,16.90
2019-05-07T10:56:22.127Z,16.60
2019-05-07T10:58:49.576Z,16.20
2019-05-07T11:01:22.384Z,15.90
2019-05-07T11:03:51.703Z,15.80
2019-05-07T11:06:21.968Z,15.70
2019-05-07T11:08:48.975Z,15.80
2019-05-07T11:11:16.646Z,16.10
2019-05-07T11:13:44.270Z,16.30
2019-05-07T11:16:14.146Z,16.70
2019-05-07T11:18:51.789Z,17.20
2019-05-07T11:21:29.354Z,17.40
2019-05-07T11:23:58.584Z,17.40
2019-05-07T11:26:26.338Z,17.30
2019-05-07T11:28:53.965Z,17.10
2019-05-07T11:31:22.390Z,17.10
2019-05-07T11:33:52.012Z,17.20
2019-05-07T11:36:19.685Z,17.20
2019-05-07T11:38:47.659Z,17.40
2019-05-07T11:41:15.807Z,17.20
2019-05-07T11:44:01.767Z,16.80
2019-05-07T11:46:36.281Z,16.50
2019-05-07T11:49:13.751Z,16.20
2019-05-07T11:52:04.059Z,16.30
2019-05-07T11:54:31.901Z,16.50
2019-05-07T11:56:59.654Z,16.80
2019-05-07T11:59:27.301Z,17.00
2019-05-07T12:01:59.917Z,17.20
2019-05-07T12:04:28.078Z,17.20
2019-05-07T12:06:55.940Z,17.20
2019-05-07T12:09:23.572Z,17.30
2019-05-07T12:11:52.032Z,17.40
2019-05-07T12:14:28.952Z,17.70
2019-05-07T12:16:49.364Z,17.60
2019-05-07T12:19:17.054Z,17.50
2019-05-07T12:21:44.767Z,17.30
2019-05-07T12:24:14.586Z,17.20
2019-05-07T12:26:43.177Z,17.10
2019-05-07T12:29:11.804Z,17.10
2019-05-07T12:32:02.637Z,16.90
2019-05-07T12:34:56.056Z,17.00
2019-05-07T12:37:23.683Z,17.10
2019-05-07T12:39:52.787Z,17.10
2019-05-07T12:42:22.340Z,17.20
2019-05-07T12:44:51.738Z,17.20
2019-05-07T12:47:19.525Z,17.30
2019-05-07T12:49:47.205Z,17.50
2019-05-07T12:52:22.763Z,17.80
2019-05-07T12:55:08.486Z,17.70
2019-05-07T12:57:36.155Z,18.00
2019-05-07T13:00:22.999Z,18.20
2019-05-07T13:03:13.772Z,18.20
2019-05-07T13:05:41.790Z,18.10
2019-05-07T13:08:09.727Z,17.80
2019-05-07T13:10:37.381Z,17.50
2019-05-07T13:13:05.024Z,17.30
2019-05-07T13:15:32.734Z,17.30
2019-05-07T13:18:02.582Z,17.30
2019-05-07T13:20:31.914Z,17.10
2019-05-07T13:22:59.352Z,17.00
2019-05-07T13:25:28.131Z,16.90
2019-05-07T13:27:56.335Z,16.70
2019-05-07T13:30:24.090Z,16.40
2019-05-07T13:32:54.384Z,16.10
2019-05-07T13:35:23.234Z,16.30
2019-05-07T13:38:09.326Z,16.40
2019-05-07T13:40:54.936Z,16.60
2019-05-07T13:43:27.615Z,16.70
2019-05-07T13:46:02.665Z,16.80
2019-05-07T13:48:31.701Z,16.90
2019-05-07T13:51:01.659Z,16.90
2019-05-07T13:53:29.142Z,17.10
2019-05-07T13:55:56.761Z,17.30
2019-05-07T13:58:24.424Z,17.60
2019-05-07T14:01:05.489Z,17.90
2019-05-07T14:03:33.165Z,17.60
2019-05-07T14:06:01.734Z,17.30
2019-05-07T14:08:32.743Z,17.40
2019-05-07T14:11:02.637Z,17.40
2019-05-07T14:13:29.886Z,17.30
2019-05-07T14:16:12.082Z,17.30
2019-05-07T14:18:39.954Z,17.10
2019-05-07T14:21:08.084Z,17.00
2019-05-07T14:23:36.045Z,17.00
2019-05-07T14:26:04.004Z,17.20
2019-05-07T14:28:32.614Z,17.20
2019-05-07T14:31:01.823Z,17.20
2019-05-07T14:34:02.880Z,16.90
2019-05-07T14:36:50.184Z,16.80
2019-05-07T14:39:17.960Z,16.80
2019-05-07T14:41:47.247Z,16.60
2019-05-07T14:44:15.943Z,16.50
2019-05-07T14:46:50.576Z,16.30
2019-05-07T14:49:13.182Z,16.30
2019-05-07T14:51:40.877Z,16.30
2019-05-07T14:54:08.614Z,16.30
2019-05-07T14:56:36.272Z,16.20
2019-05-07T14:59:04.178Z,16.00
2019-05-07T15:01:33.799Z,16.10
2019-05-07T15:04:02.279Z,16.10
2019-05-07T15:06:32.382Z,16.20
2019-05-07T15:08:59.658Z,16.30
2019-05-07T15:11:27.626Z,16.40
2019-05-07T15:13:55.332Z,16.40
2019-05-07T15:16:23.811Z,16.40
2019-05-07T15:18:53.120Z,16.50
2019-05-07T15:21:21.380Z,16.50
2019-05-07T15:23:50.031Z,16.30
2019-05-07T15:26:17.803Z,16.30
2019-05-07T15:28:48.595Z,16.40
2019-05-07T15:31:19.034Z,16.40
2019-05-07T15:33:46.676Z,16.30
2019-05-07T15:36:14.383Z,16.10
2019-05-07T15:38:42.951Z,16.00
2019-05-07T15:41:10.728Z,15.90
2019-05-07T15:43:38.363Z,15.90
2019-05-07T15:46:06.284Z,16.00
2019-05-07T15:48:34.070Z,15.90
2019-05-07T15:51:01.746Z,15.90
2019-05-07T15:53:33.422Z,15.80
2019-05-07T15:56:01.814Z,15.90
2019-05-07T15:58:29.603Z,14.80
2019-05-07T16:00:57.204Z,15.70
2019-05-07T16:03:33.159Z,15.70
2019-05-07T16:06:03.546Z,15.60
2019-05-07T16:08:33.027Z,15.60
2019-05-07T16:11:01.586Z,15.50
2019-05-07T16:13:32.790Z,15.60
2019-05-07T16:16:02.249Z,15.60
2019-05-07T16:18:38.522Z,15.70
2019-05-07T16:21:06.211Z,15.70
2019-05-07T16:23:34.013Z,15.80
2019-05-07T16:26:02.392Z,15.90
2019-05-07T16:28:32.412Z,15.90
2019-05-07T16:31:02.420Z,15.90
2019-05-07T16:33:29.702Z,15.90
2019-05-07T16:35:57.339Z,16.00
2019-05-07T16:38:25.041Z,16.10
2019-05-07T16:40:52.692Z,16.10
2019-05-07T16:43:21.976Z,16.20
2019-05-07T16:45:51.651Z,16.20
2019-05-07T16:48:19.199Z,16.20
2019-05-07T16:50:46.851Z,16.20
2019-05-07T16:53:26.700Z,16.10
2019-05-07T16:55:43.944Z,16.00
2019-05-07T16:58:24.245Z,15.80
2019-05-07T17:00:55.619Z,15.70
2019-05-07T17:03:28.253Z,15.60
2019-05-07T17:05:55.884Z,15.20
2019-05-07T17:08:49.029Z,15.00
2019-05-07T17:11:16.680Z,14.80
2019-05-07T17:13:44.363Z,14.60
2019-05-07T17:16:12.381Z,14.60
2019-05-07T17:18:40.180Z,14.60
2019-05-07T17:21:07.854Z,14.60
2019-05-07T17:23:44.218Z,14.50
2019-05-07T17:26:05.095Z,14.40
2019-05-07T17:28:32.863Z,14.20
2019-05-07T17:31:02.905Z,14.00
2019-05-07T17:33:31.876Z,13.90
2019-05-07T17:35:59.405Z,13.70
2019-05-07T17:38:27.070Z,13.60
2019-05-07T17:40:54.756Z,13.50
2019-05-07T17:43:22.399Z,13.40
2019-05-07T17:45:52.073Z,13.30
2019-05-07T17:48:19.523Z,13.20
2019-05-07T17:51:07.511Z,13.10
2019-05-07T17:53:35.139Z,13.00
2019-05-07T17:56:02.796Z,12.90
2019-05-07T17:58:32.409Z,12.90
2019-05-07T18:01:01.808Z,12.80
2019-05-07T18:03:36.396Z,12.70
2019-05-07T18:06:04.718Z,12.60
2019-05-07T18:08:32.778Z,12.60
2019-05-07T18:11:02.247Z,12.50
2019-05-07T18:13:32.415Z,12.50
2019-05-07T18:16:06.393Z,12.50
2019-05-07T18:18:34.377Z,12.40
2019-05-07T18:21:02.451Z,12.40
2019-05-07T18:23:32.201Z,12.40
2019-05-07T18:26:00.115Z,12.30
2019-05-07T18:28:29.244Z,12.20
2019-05-07T18:30:57.490Z,12.10
2019-05-07T18:33:52.370Z,12.10
2019-05-07T18:36:20.078Z,12.00
2019-05-07T18:38:47.742Z,11.90
2019-05-07T18:41:15.517Z,11.90
2019-05-07T18:43:43.165Z,11.90
2019-05-07T18:46:12.652Z,11.80
2019-05-07T18:48:42.442Z,11.80
2019-05-07T18:51:11.993Z,11.70
2019-05-07T18:53:39.296Z,11.60
2019-05-07T18:56:06.974Z,11.50
2019-05-07T18:58:34.591Z,11.50
2019-05-07T19:01:07.038Z,11.40
2019-05-07T19:03:34.687Z,11.30
2019-05-07T19:06:02.898Z,11.30
2019-05-07T19:08:32.670Z,11.20
2019-05-07T19:11:00.263Z,11.10
2019-05-07T19:13:27.873Z,11.10
2019-05-07T19:15:56.563Z,11.00
2019-05-07T19:18:24.436Z,10.90
2019-05-07T19:20:52.964Z,10.80
2019-05-07T19:23:22.344Z,10.70
2019-05-07T19:25:52.190Z,10.60
2019-05-07T19:28:19.704Z,10.50
2019-05-07T19:30:47.543Z,10.40
2019-05-07T19:33:24.390Z,10.30
2019-05-07T19:35:52.759Z,10.10
2019-05-07T19:38:21.886Z,10.00
2019-05-07T19:40:52.821Z,9.90
2019-05-07T19:43:23.947Z,9.70
2019-05-07T19:45:53.843Z,9.60
2019-05-07T19:48:27.008Z,9.40
2019-05-07T19:50:56.054Z,9.30
2019-05-07T19:53:26.748Z,9.20
2019-05-07T19:56:11.907Z,9.10
2019-05-07T19:58:41.778Z,9.00
2019-05-07T20:01:11.932Z,8.90
2019-05-07T20:03:39.664Z,8.80
2019-05-07T20:06:07.361Z,8.70
2019-05-07T20:08:35.057Z,8.60
2019-05-07T20:11:08.941Z,8.50
2019-05-07T20:13:36.551Z,8.40
2019-05-07T20:16:12.201Z,8.40
2019-05-07T20:18:39.970Z,8.30
2019-05-07T20:21:07.692Z,8.30
2019-05-07T20:23:35.333Z,8.20
2019-05-07T20:26:03.163Z,8.10
2019-05-07T20:28:32.722Z,8.10
2019-05-07T20:31:00.266Z,8.00
2019-05-07T20:33:27.932Z,8.00
2019-05-07T20:35:55.553Z,7.90
2019-05-07T20:38:23.216Z,7.90
2019-05-07T20:40:52.106Z,7.80
2019-05-07T20:43:19.797Z,7.80
2019-05-07T20:45:47.546Z,7.70
2019-05-07T20:48:15.331Z,7.60
2019-05-07T20:50:42.971Z,7.60
2019-05-07T20:53:10.607Z,7.50
2019-05-07T20:55:43.360Z,7.50
2019-05-07T20:58:19.402Z,7.40
2019-05-07T21:00:47.156Z,7.40
2019-05-07T21:03:20.623Z,7.40
2019-05-07T21:05:52.925Z,7.30
2019-05-07T21:08:22.809Z,7.30
2019-05-07T21:10:50.335Z,7.20
2019-05-07T21:13:30.116Z,7.20
2019-05-07T21:15:48.777Z,7.10
2019-05-07T21:18:16.486Z,7.10
2019-05-07T21:20:44.144Z,7.00
2019-05-07T21:23:12.336Z,6.90
2019-05-07T21:25:43.552Z,6.90
2019-05-07T21:28:09.489Z,6.90
2019-05-07T21:30:37.117Z,6.80
2019-05-07T21:33:05.159Z,6.70
2019-05-07T21:35:33.179Z,6.70
2019-05-07T21:38:00.841Z,6.60
2019-05-07T21:40:28.502Z,6.50
2019-05-07T21:42:56.180Z,6.40
2019-05-07T21:45:23.931Z,6.40
2019-05-07T21:47:52.104Z,6.30
2019-05-07T21:50:21.928Z,6.20
2019-05-07T21:52:55.470Z,6.10
2019-05-07T21:55:38.729Z,6.10
2019-05-07T21:58:24.717Z,6.00
2019-05-07T22:01:02.211Z,5.90
2019-05-07T22:03:32.036Z,5.80
2019-05-07T22:05:59.370Z,5.70
2019-05-07T22:08:27.045Z,5.60
2019-05-07T22:10:54.847Z,5.50
2019-05-07T22:13:22.534Z,5.50
2019-05-07T22:15:52.203Z,5.40
2019-05-07T22:18:19.731Z,5.30
2019-05-07T22:20:47.414Z,5.20
2019-05-07T22:23:15.082Z,5.20
2019-05-07T22:25:42.764Z,5.10
2019-05-07T22:28:10.372Z,5.10
2019-05-07T22:30:48.907Z,5.00
2019-05-07T22:33:24.090Z,4.90
2019-05-07T22:35:52.244Z,4.90
2019-05-07T22:38:20.072Z,4.80
2019-05-07T22:40:47.740Z,4.80
2019-05-07T22:43:15.428Z,4.70
2019-05-07T22:45:43.115Z,4.70
2019-05-07T22:48:12.229Z,4.60
2019-05-07T22:50:42.342Z,4.60
2019-05-07T22:53:09.558Z,4.50
2019-05-07T22:55:37.237Z,4.50
2019-05-07T22:58:09.732Z,4.40
2019-05-07T23:00:44.900Z,4.40
2019-05-07T23:03:12.588Z,4.30
2019-05-07T23:05:42.276Z,4.30
2019-05-07T23:08:09.827Z,4.20
2019-05-07T23:10:37.479Z,4.20
2019-05-07T23:13:05.149Z,4.10
2019-05-07T23:15:32.934Z,4.10
2019-05-07T23:18:04.117Z,4.10
2019-05-07T23:20:31.935Z,4.00
2019-05-07T23:22:59.528Z,4.00
2019-05-07T23:25:27.166Z,3.90
2019-05-07T23:27:54.861Z,3.90
2019-05-07T23:30:22.481Z,3.90
2019-05-07T23:32:50.229Z,3.80
2019-05-07T23:35:17.862Z,3.80
2019-05-07T23:37:45.500Z,3.80
2019-05-07T23:40:20.372Z,3.70
2019-05-07T23:42:48.989Z,3.70
2019-05-07T23:45:16.730Z,3.70
2019-05-07T23:47:44.733Z,3.60
2019-05-07T23:50:12.634Z,3.70
2019-05-07T23:52:44.011Z,3.60
2019-05-07T23:55:12.108Z,3.60
2019-05-07T23:57:39.438Z,3.60
